sensor_id;sensor_type;location;lat;lon;timestamp;pressure;altitude;pressure_sealevel;temperature;humidity
43147;BME280;28752;48.266;7.402;2023-12-29T00:00:40;99599.63;;;11.86;73.37
43147;BME280;28752;48.266;7.402;2023-12-29T00:03:05;99604.63;;;11.89;73.39
43147;BME280;28752;48.266;7.402;2023-12-29T00:05:31;99595.72;;;11.80;73.24
43147;BME280;28752;48.266;7.402;2023-12-29T00:07:56;99607.13;;;11.90;72.94
43147;BME280;28752;48.266;7.402;2023-12-29T00:10:21;99600.75;;;11.83;73.43
43147;BME280;28752;48.266;7.402;2023-12-29T00:12:47;99597.22;;;11.93;73.21
43147;BME280;28752;48.266;7.402;2023-12-29T00:15:27;99597.59;;;11.98;72.90
43147;BME280;28752;48.266;7.402;2023-12-29T00:28:23;99594.13;;;12.15;72.26
43147;BME280;28752;48.266;7.402;2023-12-29T00:30:48;99598.13;;;12.19;72.47
43147;BME280;28752;48.266;7.402;2023-12-29T00:33:13;99591.81;;;12.20;72.48
43147;BME280;28752;48.266;7.402;2023-12-29T00:35:39;99590.34;;;12.18;72.41
43147;BME280;28752;48.266;7.402;2023-12-29T00:38:05;99595.50;;;12.19;72.74
43147;BME280;28752;48.266;7.402;2023-12-29T00:40:31;99590.47;;;12.16;73.59
43147;BME280;28752;48.266;7.402;2023-12-29T00:42:56;99591.75;;;12.12;73.48
43147;BME280;28752;48.266;7.402;2023-12-29T00:45:21;99595.94;;;12.15;73.62
43147;BME280;28752;48.266;7.402;2023-12-29T00:47:47;99601.41;;;12.13;73.58
43147;BME280;28752;48.266;7.402;2023-12-29T00:50:13;99593.66;;;12.20;73.53
43147;BME280;28752;48.266;7.402;2023-12-29T00:52:38;99595.34;;;12.21;73.33
43147;BME280;28752;48.266;7.402;2023-12-29T00:55:04;99591.53;;;12.23;73.15
43147;BME280;28752;48.266;7.402;2023-12-29T00:57:30;99580.22;;;12.21;73.26
43147;BME280;28752;48.266;7.402;2023-12-29T01:13:45;99578.34;;;11.96;74.20
43147;BME280;28752;48.266;7.402;2023-12-29T01:16:10;99570.06;;;11.99;74.13
43147;BME280;28752;48.266;7.402;2023-12-29T01:18:36;99581.91;;;12.04;74.06
43147;BME280;28752;48.266;7.402;2023-12-29T01:21:01;99583.03;;;12.02;73.86
43147;BME280;28752;48.266;7.402;2023-12-29T01:23:26;99573.25;;;12.02;74.12
43147;BME280;28752;48.266;7.402;2023-12-29T01:25:52;99584.56;;;12.04;73.94
43147;BME280;28752;48.266;7.402;2023-12-29T01:28:17;99586.91;;;12.07;74.09
43147;BME280;28752;48.266;7.402;2023-12-29T01:30:42;99571.59;;;12.01;74.36
43147;BME280;28752;48.266;7.402;2023-12-29T01:33:09;99584.56;;;12.04;74.25
43147;BME280;28752;48.266;7.402;2023-12-29T01:35:34;99579.25;;;12.04;74.38
43147;BME280;28752;48.266;7.402;2023-12-29T01:38:02;99583.72;;;12.04;74.44
43147;BME280;28752;48.266;7.402;2023-12-29T01:40:27;99589.72;;;12.06;74.07
43147;BME280;28752;48.266;7.402;2023-12-29T01:42:53;99597.84;;;12.04;74.11
43147;BME280;28752;48.266;7.402;2023-12-29T01:45:22;99598.81;;;12.03;74.13
43147;BME280;28752;48.266;7.402;2023-12-29T01:47:49;99592.13;;;11.99;74.47
43147;BME280;28752;48.266;7.402;2023-12-29T01:50:17;99587.66;;;12.00;74.33
43147;BME280;28752;48.266;7.402;2023-12-29T01:52:43;99581.50;;;11.99;74.42
43147;BME280;28752;48.266;7.402;2023-12-29T01:55:10;99572.06;;;11.97;74.57
43147;BME280;28752;48.266;7.402;2023-12-29T01:57:37;99574.00;;;11.95;74.31
43147;BME280;28752;48.266;7.402;2023-12-29T02:00:07;99567.88;;;11.94;74.29
43147;BME280;28752;48.266;7.402;2023-12-29T02:02:34;99570.53;;;11.94;74.31
43147;BME280;28752;48.266;7.402;2023-12-29T02:04:59;99571.25;;;11.86;74.45
43147;BME280;28752;48.266;7.402;2023-12-29T02:07:27;99572.94;;;11.87;74.75
43147;BME280;28752;48.266;7.402;2023-12-29T02:09:56;99577.94;;;11.90;74.59
43147;BME280;28752;48.266;7.402;2023-12-29T02:12:22;99566.78;;;11.87;74.73
43147;BME280;28752;48.266;7.402;2023-12-29T02:14:48;99563.28;;;11.68;75.11
43147;BME280;28752;48.266;7.402;2023-12-29T02:17:38;99564.88;;;11.79;75.06
43147;BME280;28752;48.266;7.402;2023-12-29T02:20:05;99550.78;;;11.79;74.81
43147;BME280;28752;48.266;7.402;2023-12-29T02:22:32;99551.59;;;11.79;74.83
43147;BME280;28752;48.266;7.402;2023-12-29T02:24:57;99546.59;;;11.76;75.01
43147;BME280;28752;48.266;7.402;2023-12-29T02:30:33;99550.31;;;11.65;75.05
43147;BME280;28752;48.266;7.402;2023-12-29T02:33:08;99550.69;;;11.70;74.39
43147;BME280;28752;48.266;7.402;2023-12-29T02:35:39;99546.59;;;11.76;74.23
43147;BME280;28752;48.266;7.402;2023-12-29T02:38:04;99547.50;;;11.67;74.95
43147;BME280;28752;48.266;7.402;2023-12-29T02:40:30;99539.84;;;11.64;74.86
43147;BME280;28752;48.266;7.402;2023-12-29T02:42:55;99540.06;;;11.70;74.48
43147;BME280;28752;48.266;7.402;2023-12-29T02:45:21;99542.06;;;11.68;74.93
43147;BME280;28752;48.266;7.402;2023-12-29T02:47:47;99539.47;;;11.77;74.65
43147;BME280;28752;48.266;7.402;2023-12-29T02:50:13;99535.84;;;11.78;74.67
43147;BME280;28752;48.266;7.402;2023-12-29T02:52:38;99534.41;;;11.65;74.80
43147;BME280;28752;48.266;7.402;2023-12-29T02:55:04;99526.59;;;11.82;74.56
43147;BME280;28752;48.266;7.402;2023-12-29T02:57:29;99507.22;;;11.81;74.52
43147;BME280;28752;48.266;7.402;2023-12-29T02:59:55;99517.66;;;11.83;74.41
43147;BME280;28752;48.266;7.402;2023-12-29T03:02:21;99522.13;;;11.82;74.66
43147;BME280;28752;48.266;7.402;2023-12-29T03:04:46;99516.16;;;11.80;74.76
43147;BME280;28752;48.266;7.402;2023-12-29T03:07:12;99526.59;;;11.82;74.74
43147;BME280;28752;48.266;7.402;2023-12-29T03:09:37;99521.91;;;11.76;75.04
43147;BME280;28752;48.266;7.402;2023-12-29T03:12:03;99524.72;;;11.74;75.05
43147;BME280;28752;48.266;7.402;2023-12-29T03:14:28;99527.97;;;11.68;75.30
43147;BME280;28752;48.266;7.402;2023-12-29T03:16:54;99523.03;;;11.73;74.90
43147;BME280;28752;48.266;7.402;2023-12-29T03:19:20;99515.75;;;11.75;74.88
43147;BME280;28752;48.266;7.402;2023-12-29T03:21:45;99514.09;;;11.74;75.29
43147;BME280;28752;48.266;7.402;2023-12-29T03:24:10;99507.53;;;11.78;75.21
43147;BME280;28752;48.266;7.402;2023-12-29T03:26:36;99513.25;;;11.73;76.01
43147;BME280;28752;48.266;7.402;2023-12-29T03:29:01;99506.34;;;11.81;75.91
43147;BME280;28752;48.266;7.402;2023-12-29T03:31:26;99516.16;;;11.80;76.14
43147;BME280;28752;48.266;7.402;2023-12-29T03:33:52;99518.34;;;11.85;76.40
43147;BME280;28752;48.266;7.402;2023-12-29T03:36:17;99518.56;;;11.91;76.22
43147;BME280;28752;48.266;7.402;2023-12-29T03:38:43;99509.50;;;11.94;76.22
43147;BME280;28752;48.266;7.402;2023-12-29T03:41:08;99509.50;;;11.94;76.48
43147;BME280;28752;48.266;7.402;2023-12-29T03:43:33;99510.88;;;11.98;76.37
43147;BME280;28752;48.266;7.402;2023-12-29T03:56:21;99525.94;;;11.98;75.70
43147;BME280;28752;48.266;7.402;2023-12-29T03:59:42;99516.31;;;11.97;75.75
43147;BME280;28752;48.266;7.402;2023-12-29T04:02:09;99509.34;;;11.96;75.81
43147;BME280;28752;48.266;7.402;2023-12-29T04:04:37;99514.03;;;12.02;75.55
43147;BME280;28752;48.266;7.402;2023-12-29T04:07:04;99497.59;;;11.98;75.76
43147;BME280;28752;48.266;7.402;2023-12-29T04:09:30;99507.94;;;11.91;75.88
43147;BME280;28752;48.266;7.402;2023-12-29T04:11:55;99509.56;;;11.84;76.19
43147;BME280;28752;48.266;7.402;2023-12-29T04:14:21;99499.09;;;12.01;75.62
43147;BME280;28752;48.266;7.402;2023-12-29T04:16:46;99499.53;;;12.14;75.02
43147;BME280;28752;48.266;7.402;2023-12-29T04:19:11;99497.69;;;12.33;74.51
43147;BME280;28752;48.266;7.402;2023-12-29T04:21:37;99501.03;;;12.35;74.52
43147;BME280;28752;48.266;7.402;2023-12-29T04:24:02;99501.66;;;12.29;74.86
43147;BME280;28752;48.266;7.402;2023-12-29T04:26:28;99513.69;;;12.41;74.44
43147;BME280;28752;48.266;7.402;2023-12-29T04:28:53;99499.97;;;12.27;74.84
43147;BME280;28752;48.266;7.402;2023-12-29T04:31:18;99510.28;;;12.31;75.07
43147;BME280;28752;48.266;7.402;2023-12-29T04:33:44;99520.28;;;12.37;74.75
43147;BME280;28752;48.266;7.402;2023-12-29T04:36:09;99507.38;;;12.42;74.76
43147;BME280;28752;48.266;7.402;2023-12-29T04:38:34;99505.41;;;12.44;74.75
43147;BME280;28752;48.266;7.402;2023-12-29T04:41:00;99504.41;;;12.45;74.91
43147;BME280;28752;48.266;7.402;2023-12-29T04:43:25;99514.50;;;12.41;75.21
43147;BME280;28752;48.266;7.402;2023-12-29T04:45:50;99512.44;;;12.53;75.13
43147;BME280;28752;48.266;7.402;2023-12-29T04:48:15;99501.50;;;12.56;74.96
43147;BME280;28752;48.266;7.402;2023-12-29T04:50:41;99502.16;;;12.58;74.99
43147;BME280;28752;48.266;7.402;2023-12-29T04:53:06;99509.50;;;12.38;75.60
43147;BME280;28752;48.266;7.402;2023-12-29T04:55:31;99512.72;;;12.24;76.44
43147;BME280;28752;48.266;7.402;2023-12-29T04:57:57;99511.25;;;12.30;76.33
43147;BME280;28752;48.266;7.402;2023-12-29T05:00:22;99504.47;;;12.27;76.52
43147;BME280;28752;48.266;7.402;2023-12-29T05:02:47;99513.75;;;12.31;76.55
43147;BME280;28752;48.266;7.402;2023-12-29T05:05:13;99507.44;;;12.24;77.10
43147;BME280;28752;48.266;7.402;2023-12-29T05:07:40;99503.56;;;12.18;77.32
43147;BME280;28752;48.266;7.402;2023-12-29T05:10:06;99494.78;;;12.18;77.65
43147;BME280;28752;48.266;7.402;2023-12-29T05:12:32;99490.91;;;12.12;77.83
43147;BME280;28752;48.266;7.402;2023-12-29T05:14:57;99491.84;;;12.29;77.37
43147;BME280;28752;48.266;7.402;2023-12-29T05:17:23;99504.47;;;12.27;77.85
43147;BME280;28752;48.266;7.402;2023-12-29T05:19:48;99498.22;;;12.36;77.39
43147;BME280;28752;48.266;7.402;2023-12-29T05:22:13;99500.88;;;12.36;77.31
43147;BME280;28752;48.266;7.402;2023-12-29T05:24:42;99490.44;;;12.17;78.31
43147;BME280;28752;48.266;7.402;2023-12-29T05:27:07;99497.13;;;12.21;78.66
43147;BME280;28752;48.266;7.402;2023-12-29T05:29:33;99496.50;;;12.27;78.59
43147;BME280;28752;48.266;7.402;2023-12-29T05:31:58;99493.84;;;12.27;78.67
43147;BME280;28752;48.266;7.402;2023-12-29T05:34:24;99488.38;;;12.29;78.69
43147;BME280;28752;48.266;7.402;2023-12-29T05:36:49;99488.22;;;12.30;78.64
43147;BME280;28752;48.266;7.402;2023-12-29T05:39:14;99483.88;;;12.29;78.53
43147;BME280;28752;48.266;7.402;2023-12-29T05:41:40;99479.34;;;12.21;79.01
43147;BME280;28752;48.266;7.402;2023-12-29T05:44:05;99460.50;;;12.33;78.38
43147;BME280;28752;48.266;7.402;2023-12-29T05:46:30;99468.00;;;12.37;78.04
43147;BME280;28752;48.266;7.402;2023-12-29T05:48:56;99466.03;;;12.39;77.46
43147;BME280;28752;48.266;7.402;2023-12-29T05:51:21;99472.06;;;12.23;77.87
43147;BME280;28752;48.266;7.402;2023-12-29T05:53:47;99484.66;;;12.21;78.12
43147;BME280;28752;48.266;7.402;2023-12-29T05:56:13;99481.81;;;12.15;78.32
43147;BME280;28752;48.266;7.402;2023-12-29T05:58:42;99486.81;;;12.18;78.37
43147;BME280;28752;48.266;7.402;2023-12-29T06:01:08;99485.38;;;12.05;79.09
43147;BME280;28752;48.266;7.402;2023-12-29T06:03:34;99479.63;;;12.10;79.01
43147;BME280;28752;48.266;7.402;2023-12-29T06:05:59;99481.97;;;12.13;78.82
43147;BME280;28752;48.266;7.402;2023-12-29T06:08:25;99485.13;;;12.17;78.80
43147;BME280;28752;48.266;7.402;2023-12-29T06:10:51;99490.13;;;12.20;78.87
43147;BME280;28752;48.266;7.402;2023-12-29T06:13:17;99503.91;;;12.23;78.55
43147;BME280;28752;48.266;7.402;2023-12-29T06:15:42;99503.59;;;12.26;78.50
43147;BME280;28752;48.266;7.402;2023-12-29T06:18:08;99490.19;;;12.28;78.42
43147;BME280;28752;48.266;7.402;2023-12-29T06:20:33;99505.47;;;12.34;78.41
43147;BME280;28752;48.266;7.402;2023-12-29T06:22:59;99505.31;;;12.36;78.23
43147;BME280;28752;48.266;7.402;2023-12-29T06:25:24;99502.22;;;12.40;78.22
43147;BME280;28752;48.266;7.402;2023-12-29T06:27:50;99503.06;;;12.41;78.13
43147;BME280;28752;48.266;7.402;2023-12-29T06:30:15;99499.94;;;12.46;78.00
43147;BME280;28752;48.266;7.402;2023-12-29T06:32:41;99496.97;;;12.49;77.88
43147;BME280;28752;48.266;7.402;2023-12-29T06:35:07;99495.13;;;12.49;77.94
43147;BME280;28752;48.266;7.402;2023-12-29T06:37:32;99496.97;;;12.49;77.70
43147;BME280;28752;48.266;7.402;2023-12-29T06:39:58;99495.59;;;12.44;78.01
43147;BME280;28752;48.266;7.402;2023-12-29T06:42:23;99486.66;;;12.46;78.09
43147;BME280;28752;48.266;7.402;2023-12-29T06:44:49;99491.81;;;12.47;78.00
43147;BME280;28752;48.266;7.402;2023-12-29T06:47:14;99485.69;;;12.47;78.16
43147;BME280;28752;48.266;7.402;2023-12-29T06:49:40;99498.56;;;12.41;78.36
43147;BME280;28752;48.266;7.402;2023-12-29T06:52:06;99494.03;;;12.34;78.66
43147;BME280;28752;48.266;7.402;2023-12-29T06:54:31;99495.09;;;12.41;78.34
43147;BME280;28752;48.266;7.402;2023-12-29T06:56:57;99496.97;;;12.49;78.05
43147;BME280;28752;48.266;7.402;2023-12-29T06:59:22;99485.38;;;12.50;77.98
43147;BME280;28752;48.266;7.402;2023-12-29T07:01:48;99492.28;;;12.42;78.17
43147;BME280;28752;48.266;7.402;2023-12-29T07:04:13;99497.91;;;12.39;78.40
43147;BME280;28752;48.266;7.402;2023-12-29T07:06:40;99493.56;;;12.38;78.30
43147;BME280;28752;48.266;7.402;2023-12-29T07:09:06;99502.66;;;12.36;78.36
43147;BME280;28752;48.266;7.402;2023-12-29T07:11:32;99496.03;;;12.32;78.35
43147;BME280;28752;48.266;7.402;2023-12-29T07:13:58;99503.72;;;12.43;78.03
43147;BME280;28752;48.266;7.402;2023-12-29T07:16:23;99508.53;;;12.39;78.08
43147;BME280;28752;48.266;7.402;2023-12-29T07:18:48;99504.88;;;12.40;78.15
43147;BME280;28752;48.266;7.402;2023-12-29T07:21:14;99507.16;;;12.35;78.15
43147;BME280;28752;48.266;7.402;2023-12-29T07:23:41;99502.28;;;12.22;78.81
43147;BME280;28752;48.266;7.402;2023-12-29T07:26:07;99505.28;;;12.27;78.66
43147;BME280;28752;48.266;7.402;2023-12-29T07:28:32;99500.19;;;12.34;78.48
43147;BME280;28752;48.266;7.402;2023-12-29T07:30:58;99496.19;;;12.30;78.58
43147;BME280;28752;48.266;7.402;2023-12-29T07:33:23;99507.94;;;12.27;78.49
43147;BME280;28752;48.266;7.402;2023-12-29T07:35:49;99494.34;;;12.31;78.31
43147;BME280;28752;48.266;7.402;2023-12-29T07:38:15;99506.03;;;12.38;78.34
43147;BME280;28752;48.266;7.402;2023-12-29T07:40:40;99507.97;;;12.36;78.66
43147;BME280;28752;48.266;7.402;2023-12-29T07:43:06;99504.72;;;12.42;78.51
43147;BME280;28752;48.266;7.402;2023-12-29T07:45:31;99515.91;;;12.27;79.23
43147;BME280;28752;48.266;7.402;2023-12-29T07:47:56;99518.84;;;12.42;78.44
43147;BME280;28752;48.266;7.402;2023-12-29T07:50:22;99514.34;;;12.43;78.56
43147;BME280;28752;48.266;7.402;2023-12-29T07:52:47;99513.22;;;12.46;78.64
43147;BME280;28752;48.266;7.402;2023-12-29T07:55:13;99509.03;;;12.43;79.00
43147;BME280;28752;48.266;7.402;2023-12-29T07:57:41;99512.28;;;12.55;78.36
43147;BME280;28752;48.266;7.402;2023-12-29T08:00:07;99511.78;;;12.59;78.47
43147;BME280;28752;48.266;7.402;2023-12-29T08:02:32;99522.06;;;12.54;78.58
43147;BME280;28752;48.266;7.402;2023-12-29T08:04:58;99519.13;;;12.66;78.09
43147;BME280;28752;48.266;7.402;2023-12-29T08:07:23;99520.06;;;12.83;77.50
43147;BME280;28752;48.266;7.402;2023-12-29T08:09:49;99520.34;;;12.71;77.64
43147;BME280;28752;48.266;7.402;2023-12-29T08:12:14;99527.38;;;12.80;77.40
43147;BME280;28752;48.266;7.402;2023-12-29T08:14:39;99520.59;;;12.86;77.20
43147;BME280;28752;48.266;7.402;2023-12-29T08:17:05;99523.59;;;12.91;77.59
43147;BME280;28752;48.266;7.402;2023-12-29T08:19:32;99522.81;;;12.99;77.09
43147;BME280;28752;48.266;7.402;2023-12-29T08:21:57;99531.72;;;13.24;76.17
43147;BME280;28752;48.266;7.402;2023-12-29T08:24:23;99521.94;;;13.33;75.79
43147;BME280;28752;48.266;7.402;2023-12-29T08:26:48;99519.97;;;13.35;75.69
43147;BME280;28752;48.266;7.402;2023-12-29T08:29:14;99523.66;;;13.42;75.90
43147;BME280;28752;48.266;7.402;2023-12-29T08:31:41;99521.34;;;13.47;75.10
43147;BME280;28752;48.266;7.402;2023-12-29T08:34:06;99524.00;;;13.56;74.42
43147;BME280;28752;48.266;7.402;2023-12-29T08:36:32;99523.34;;;13.54;74.58
43147;BME280;28752;48.266;7.402;2023-12-29T08:38:57;99527.69;;;13.55;74.18
43147;BME280;28752;48.266;7.402;2023-12-29T08:41:23;99529.69;;;13.61;74.19
43147;BME280;28752;48.266;7.402;2023-12-29T08:43:48;99524.00;;;13.56;74.14
43147;BME280;28752;48.266;7.402;2023-12-29T08:46:14;99531.34;;;13.62;73.87
43147;BME280;28752;48.266;7.402;2023-12-29T08:48:39;99530.38;;;13.71;73.24
43147;BME280;28752;48.266;7.402;2023-12-29T08:51:04;99540.53;;;13.84;72.89
43147;BME280;28752;48.266;7.402;2023-12-29T08:53:31;99540.03;;;13.80;73.49
43147;BME280;28752;48.266;7.402;2023-12-29T08:55:59;99542.53;;;13.90;73.38
43147;BME280;28752;48.266;7.402;2023-12-29T08:58:24;99550.19;;;13.93;73.04
43147;BME280;28752;48.266;7.402;2023-12-29T09:00:49;99547.56;;;14.01;72.24
43147;BME280;28752;48.266;7.402;2023-12-29T09:03:15;99545.19;;;13.90;72.49
43147;BME280;28752;48.266;7.402;2023-12-29T09:05:40;99551.72;;;13.96;72.71
43147;BME280;28752;48.266;7.402;2023-12-29T09:08:06;99552.03;;;13.93;72.68
43147;BME280;28752;48.266;7.402;2023-12-29T09:10:31;99547.22;;;14.04;72.19
43147;BME280;28752;48.266;7.402;2023-12-29T09:12:56;99540.72;;;14.07;71.93
43147;BME280;28752;48.266;7.402;2023-12-29T09:15:22;99545.56;;;14.03;71.84
43147;BME280;28752;48.266;7.402;2023-12-29T09:17:48;99551.53;;;14.47;72.12
43147;BME280;28752;48.266;7.402;2023-12-29T09:20:13;99553.00;;;14.74;70.26
43147;BME280;28752;48.266;7.402;2023-12-29T09:22:40;99553.19;;;14.81;69.74
43147;BME280;28752;48.266;7.402;2023-12-29T09:25:05;99550.97;;;15.01;69.67
43147;BME280;28752;48.266;7.402;2023-12-29T09:27:31;99544.41;;;15.12;68.85
43147;BME280;28752;48.266;7.402;2023-12-29T09:29:56;99551.00;;;14.92;68.40
43147;BME280;28752;48.266;7.402;2023-12-29T09:32:21;99555.69;;;14.82;68.93
43147;BME280;28752;48.266;7.402;2023-12-29T09:34:47;99548.38;;;14.68;69.18
43147;BME280;28752;48.266;7.402;2023-12-29T09:37:12;99550.53;;;14.81;68.83
43147;BME280;28752;48.266;7.402;2023-12-29T09:39:37;99543.34;;;14.89;68.73
43147;BME280;28752;48.266;7.402;2023-12-29T09:42:03;99551.66;;;14.86;68.76
43147;BME280;28752;48.266;7.402;2023-12-29T09:44:31;99544.88;;;14.67;69.12
43147;BME280;28752;48.266;7.402;2023-12-29T09:47:02;99544.38;;;14.55;69.29
43147;BME280;28752;48.266;7.402;2023-12-29T09:49:37;99551.72;;;14.70;69.15
43147;BME280;28752;48.266;7.402;2023-12-29T09:52:11;99559.84;;;14.60;69.27
43147;BME280;28752;48.266;7.402;2023-12-29T09:54:38;99555.22;;;14.62;69.12
43147;BME280;28752;48.266;7.402;2023-12-29T09:57:04;99550.06;;;14.44;69.49
43147;BME280;28752;48.266;7.402;2023-12-29T09:59:32;99556.19;;;14.45;69.62
43147;BME280;28752;48.266;7.402;2023-12-29T10:01:57;99542.22;;;14.34;70.24
43147;BME280;28752;48.266;7.402;2023-12-29T10:04:23;99555.22;;;14.46;69.80
43147;BME280;28752;48.266;7.402;2023-12-29T10:06:50;99545.53;;;14.53;69.33
43147;BME280;28752;48.266;7.402;2023-12-29T10:09:16;99544.56;;;14.46;69.53
43147;BME280;28752;48.266;7.402;2023-12-29T10:11:47;99549.22;;;14.52;69.31
43147;BME280;28752;48.266;7.402;2023-12-29T10:14:24;99552.22;;;14.49;69.53
43147;BME280;28752;48.266;7.402;2023-12-29T10:20:01;99526.88;;;14.69;68.88
43147;BME280;28752;48.266;7.402;2023-12-29T10:22:54;99510.03;;;14.77;68.63
43147;BME280;28752;48.266;7.402;2023-12-29T10:25:25;99524.72;;;14.73;68.91
43147;BME280;28752;48.266;7.402;2023-12-29T10:27:51;99514.84;;;14.90;68.75
43147;BME280;28752;48.266;7.402;2023-12-29T10:30:16;99506.50;;;14.93;68.58
43147;BME280;28752;48.266;7.402;2023-12-29T10:32:42;99503.47;;;14.96;68.89
43147;BME280;28752;48.266;7.402;2023-12-29T10:35:11;99497.06;;;15.14;68.43
43147;BME280;28752;48.266;7.402;2023-12-29T10:37:39;99500.84;;;15.27;67.95
43147;BME280;28752;48.266;7.402;2023-12-29T10:40:05;99489.34;;;15.27;67.93
43147;BME280;28752;48.266;7.402;2023-12-29T10:42:30;99483.34;;;15.56;67.00
43147;BME280;28752;48.266;7.402;2023-12-29T10:45:07;99482.84;;;15.76;66.31
43147;BME280;28752;48.266;7.402;2023-12-29T10:47:57;99477.88;;;15.73;66.34
43147;BME280;28752;48.266;7.402;2023-12-29T10:58:08;99469.91;;;15.96;66.70
43147;BME280;28752;48.266;7.402;2023-12-29T11:01:43;99478.78;;;16.11;66.29
43147;BME280;28752;48.266;7.402;2023-12-29T11:04:08;99463.16;;;16.23;66.07
43147;BME280;28752;48.266;7.402;2023-12-29T11:06:42;99469.91;;;16.49;68.00
43147;BME280;28752;48.266;7.402;2023-12-29T11:09:10;99466.50;;;17.00;68.03
43147;BME280;28752;48.266;7.402;2023-12-29T11:11:37;99468.56;;;17.56;66.58
43147;BME280;28752;48.266;7.402;2023-12-29T11:14:02;99469.91;;;17.67;64.38
43147;BME280;28752;48.266;7.402;2023-12-29T11:16:29;99475.44;;;17.87;61.94
43147;BME280;28752;48.266;7.402;2023-12-29T11:18:56;99466.47;;;17.73;62.45
43147;BME280;28752;48.266;7.402;2023-12-29T11:21:25;99466.47;;;17.51;60.34
43147;BME280;28752;48.266;7.402;2023-12-29T11:23:51;99467.50;;;17.72;58.80
43147;BME280;28752;48.266;7.402;2023-12-29T11:26:18;99462.66;;;17.61;60.19
43147;BME280;28752;48.266;7.402;2023-12-29T11:28:46;99472.72;;;17.58;60.09
43147;BME280;28752;48.266;7.402;2023-12-29T11:31:12;99476.03;;;17.39;60.32
43147;BME280;28752;48.266;7.402;2023-12-29T11:33:44;99469.31;;;17.28;60.28
43147;BME280;28752;48.266;7.402;2023-12-29T11:36:18;99464.97;;;17.27;59.77
43147;BME280;28752;48.266;7.402;2023-12-29T11:44:00;99465.56;;;16.93;58.77
43147;BME280;28752;48.266;7.402;2023-12-29T11:46:39;99455.72;;;16.93;59.63
43147;BME280;28752;48.266;7.402;2023-12-29T11:49:05;99458.72;;;17.20;61.82
43147;BME280;28752;48.266;7.402;2023-12-29T11:51:42;99450.19;;;16.95;58.18
43147;BME280;28752;48.266;7.402;2023-12-29T11:54:09;99441.16;;;16.81;56.46
43147;BME280;28752;48.266;7.402;2023-12-29T11:56:39;99444.44;;;16.83;60.29
43147;BME280;28752;48.266;7.402;2023-12-29T12:01:42;99442.41;;;16.70;54.05
43147;BME280;28752;48.266;7.402;2023-12-29T12:12:44;99425.56;;;16.40;57.07
43147;BME280;28752;48.266;7.402;2023-12-29T12:18:04;99430.19;;;17.49;54.68
43147;BME280;28752;48.266;7.402;2023-12-29T12:20:35;99433.09;;;17.69;50.02
43147;BME280;28752;48.266;7.402;2023-12-29T12:23:18;99432.81;;;17.64;50.97
43147;BME280;28752;48.266;7.402;2023-12-29T12:25:45;99424.09;;;17.98;49.66
43147;BME280;28752;48.266;7.402;2023-12-29T12:28:13;99420.16;;;18.29;48.23
43147;BME280;28752;48.266;7.402;2023-12-29T12:30:39;99439.03;;;18.14;48.65
43147;BME280;28752;48.266;7.402;2023-12-29T12:33:04;99443.50;;;17.85;49.35
43147;BME280;28752;48.266;7.402;2023-12-29T12:35:30;99450.34;;;18.09;46.70
43147;BME280;28752;48.266;7.402;2023-12-29T12:40:35;99443.78;;;17.47;45.26
43147;BME280;28752;48.266;7.402;2023-12-29T12:43:01;99445.66;;;17.32;47.26
43147;BME280;28752;48.266;7.402;2023-12-29T12:45:27;99446.63;;;17.24;47.11
43147;BME280;28752;48.266;7.402;2023-12-29T12:47:54;99436.44;;;16.98;48.02
43147;BME280;28752;48.266;7.402;2023-12-29T12:50:20;99437.81;;;16.79;48.31
43147;BME280;28752;48.266;7.402;2023-12-29T12:52:45;99431.19;;;16.60;47.30
43147;BME280;28752;48.266;7.402;2023-12-29T12:55:10;99436.53;;;16.90;49.94
43147;BME280;28752;48.266;7.402;2023-12-29T12:57:36;99434.75;;;17.12;47.35
43147;BME280;28752;48.266;7.402;2023-12-29T13:00:02;99425.16;;;17.17;49.11
43147;BME280;28752;48.266;7.402;2023-12-29T13:02:28;99428.56;;;17.48;49.80
43147;BME280;28752;48.266;7.402;2023-12-29T13:04:54;99430.09;;;17.57;48.76
43147;BME280;28752;48.266;7.402;2023-12-29T13:07:20;99424.66;;;17.72;46.21
43147;BME280;28752;48.266;7.402;2023-12-29T13:09:45;99435.66;;;17.19;46.35
43147;BME280;28752;48.266;7.402;2023-12-29T13:12:11;99430.69;;;17.16;45.44
43147;BME280;28752;48.266;7.402;2023-12-29T13:14:37;99435.41;;;16.99;46.48
43147;BME280;28752;48.266;7.402;2023-12-29T13:17:09;99438.59;;;16.87;46.10
43147;BME280;28752;48.266;7.402;2023-12-29T13:19:39;99437.84;;;16.94;46.03
43147;BME280;28752;48.266;7.402;2023-12-29T13:22:05;99429.78;;;16.79;48.26
43147;BME280;28752;48.266;7.402;2023-12-29T13:24:32;99437.81;;;16.79;47.17
43147;BME280;28752;48.266;7.402;2023-12-29T13:26:58;99438.38;;;16.59;45.92
43147;BME280;28752;48.266;7.402;2023-12-29T13:29:26;99431.28;;;16.51;46.19
43147;BME280;28752;48.266;7.402;2023-12-29T13:31:54;99435.16;;;16.49;47.00
43147;BME280;28752;48.266;7.402;2023-12-29T13:34:23;99437.56;;;16.59;47.13
43147;BME280;28752;48.266;7.402;2023-12-29T13:37:02;99440.38;;;16.27;48.12
43147;BME280;28752;48.266;7.402;2023-12-29T13:39:36;99437.84;;;16.49;46.88
43147;BME280;28752;48.266;7.402;2023-12-29T13:42:04;99435.44;;;16.39;47.47
43147;BME280;28752;48.266;7.402;2023-12-29T13:44:30;99442.53;;;16.47;46.90
43147;BME280;28752;48.266;7.402;2023-12-29T13:46:57;99434.25;;;16.42;47.03
43147;BME280;28752;48.266;7.402;2023-12-29T13:49:22;99435.88;;;16.73;46.88
43147;BME280;28752;48.266;7.402;2023-12-29T13:51:48;99434.88;;;16.74;47.81
43147;BME280;28752;48.266;7.402;2023-12-29T13:54:13;99436.06;;;16.56;47.60
43147;BME280;28752;48.266;7.402;2023-12-29T13:56:38;99440.13;;;16.37;48.28
43147;BME280;28752;48.266;7.402;2023-12-29T13:59:04;99432.19;;;16.44;48.41
43147;BME280;28752;48.266;7.402;2023-12-29T14:01:35;99437.28;;;16.54;48.35
43147;BME280;28752;48.266;7.402;2023-12-29T14:04:02;99426.69;;;16.45;49.45
43147;BME280;28752;48.266;7.402;2023-12-29T14:06:35;99439.84;;;16.32;49.34
43147;BME280;28752;48.266;7.402;2023-12-29T14:09:03;99419.78;;;15.60;50.14